Time;durP1;ratioP1;P1;durP2;ratioP2;P2;SDS_P1;SDS_P2;PMS_P1;PMS_P2;Temp;Humidity;BMP_temperature;BMP_pressure;BME280_temperature;BME280_humidity;BME280_pressure;Samples;Min_cycle;Max_cycle;Signal;HPM_P1;HPM_P2
2022/06/02 00:02:00;;;;;;;9.85;5.68;;;14.60;99.90;;;;;;5094235;28;20103;-50
2022/06/02 00:04:48;;;;;;;9.18;5.43;;;14.60;99.90;;;;;;5094213;28;20107;-51
2022/06/02 00:07:32;;;;;;;7.53;5.25;;;14.70;99.90;;;;;;5094307;28;20020;-50
2022/06/02 00:10:18;;;;;;;6.90;5.13;;;14.70;99.90;;;;;;5094009;28;20130;-51
2022/06/02 00:12:57;;;;;;;11.13;5.40;;;14.60;99.90;;;;;;5094126;28;20620;-48
2022/06/02 00:15:37;;;;;;;5.70;5.20;;;14.60;99.90;;;;;;5093982;28;20032;-52
2022/06/02 00:18:10;;;;;;;10.15;5.43;;;14.50;99.90;;;;;;5093685;28;20028;-52
2022/06/02 00:20:55;;;;;;;7.25;5.85;;;14.50;99.90;;;;;;5094079;28;20016;-51
2022/06/02 00:23:23;;;;;;;10.57;6.00;;;14.30;99.90;;;;;;5093992;28;20443;-54
2022/06/02 00:26:00;;;;;;;5.97;5.00;;;14.30;99.90;;;;;;5093639;28;20036;-50
2022/06/02 00:28:37;;;;;;;8.60;6.30;;;14.30;99.90;;;;;;5093726;28;20024;-53
2022/06/02 00:31:17;;;;;;;6.82;5.47;;;14.20;99.90;;;;;;5093353;28;20063;-51
2022/06/02 00:34:10;;;;;;;9.23;5.70;;;14.10;99.90;;;;;;5092750;28;20521;-50
2022/06/02 00:36:43;;;;;;;10.23;5.60;;;14.10;99.90;;;;;;5093378;28;20047;-53
2022/06/02 00:39:09;;;;;;;5.90;5.40;;;14.00;99.90;;;;;;5093085;28;20043;-54
2022/06/02 00:41:43;;;;;;;7.10;5.13;;;13.90;99.90;;;;;;5093828;28;20437;-50
2022/06/02 00:44:27;;;;;;;13.57;5.32;;;13.80;99.90;;;;;;5093324;28;20028;-50
2022/06/02 00:47:02;;;;;;;10.43;5.82;;;13.70;99.90;;;;;;5093281;28;20017;-52
2022/06/02 00:49:50;;;;;;;7.40;5.60;;;13.70;99.90;;;;;;5093477;28;20032;-50
2022/06/02 00:52:29;;;;;;;7.05;5.97;;;13.70;99.90;;;;;;5093532;28;20031;-52
2022/06/02 00:58:12;;;;;;;11.68;5.07;;;13.60;99.90;;;;;;5093212;28;20062;-49
2022/06/02 01:00:49;;;;;;;8.38;5.63;;;13.60;99.90;;;;;;5092986;28;20112;-53
2022/06/02 01:03:31;;;;;;;6.47;5.82;;;13.60;99.90;;;;;;5092952;28;20024;-53
2022/06/02 01:06:24;;;;;;;14.30;5.70;;;13.60;99.90;;;;;;5092794;28;20149;-52
2022/06/02 01:09:34;;;;;;;6.18;5.53;;;13.60;99.90;;;;;;5093032;28;20028;-53
2022/06/02 01:12:37;;;;;;;5.32;4.75;;;13.70;99.90;;;;;;5082044;28;20033;-50
2022/06/02 01:15:17;;;;;;;8.55;4.95;;;13.80;99.90;;;;;;5091307;28;20027;-50
2022/06/02 01:18:14;;;;;;;10.35;4.95;;;13.80;99.90;;;;;;5092359;28;20103;-53
2022/06/02 01:20:47;;;;;;;6.55;5.80;;;13.70;99.90;;;;;;5092483;28;20077;-54
2022/06/02 01:23:30;;;;;;;8.75;4.82;;;13.80;99.90;;;;;;5092722;28;20043;-49
2022/06/02 01:26:08;;;;;;;7.10;5.10;;;13.70;99.90;;;;;;5092787;28;20115;-50
2022/06/02 01:28:44;;;;;;;5.90;4.60;;;13.70;99.90;;;;;;5092704;28;20043;-51
2022/06/02 01:31:28;;;;;;;5.28;4.78;;;13.70;99.90;;;;;;5092258;28;20059;-53
2022/06/02 01:34:20;;;;;;;5.65;4.80;;;13.70;99.90;;;;;;5092345;28;20036;-53
2022/06/02 01:36:58;;;;;;;8.57;5.68;;;13.70;99.90;;;;;;5092752;28;20024;-51
2022/06/02 01:39:51;;;;;;;6.57;5.88;;;13.70;99.90;;;;;;5092434;28;20138;-49
2022/06/02 01:42:50;;;;;;;7.72;5.18;;;13.70;99.90;;;;;;5092613;28;20012;-49
2022/06/02 01:45:18;;;;;;;5.25;4.40;;;13.70;99.90;;;;;;5092234;28;20412;-49
2022/06/02 01:47:50;;;;;;;6.93;4.93;;;13.70;99.90;;;;;;5091743;28;20340;-49
2022/06/02 01:50:23;;;;;;;6.95;4.32;;;13.90;99.90;;;;;;5092388;28;20111;-48
2022/06/02 01:53:15;;;;;;;7.43;4.40;;;13.90;99.90;;;;;;5092215;28;20099;-51
2022/06/02 01:55:55;;;;;;;9.32;4.60;;;13.80;99.90;;;;;;5075784;28;20532;-51
2022/06/02 01:58:34;;;;;;;11.98;4.53;;;13.80;99.90;;;;;;5090473;28;20095;-53
2022/06/02 02:01:16;;;;;;;7.20;4.28;;;13.70;99.90;;;;;;5091727;28;20119;-52
2022/06/02 02:03:52;;;;;;;8.55;4.25;;;13.70;99.90;;;;;;5090862;28;20024;-50
2022/06/02 02:06:30;;;;;;;10.18;4.22;;;13.70;99.90;;;;;;5092208;28;20020;-50
2022/06/02 02:09:08;;;;;;;6.15;4.35;;;13.70;99.90;;;;;;5091989;28;20028;-53
2022/06/02 02:12:00;;;;;;;7.00;4.30;;;13.70;99.90;;;;;;5092163;28;20035;-51
2022/06/02 02:14:46;;;;;;;7.35;4.28;;;13.80;99.90;;;;;;5089874;28;20040;-50
2022/06/02 02:17:36;;;;;;;6.35;4.43;;;13.80;99.90;;;;;;5091981;28;20363;-53
2022/06/02 02:20:26;;;;;;;8.13;3.92;;;13.80;99.90;;;;;;5091695;28;20115;-48
2022/06/02 02:22:59;;;;;;;5.15;3.97;;;13.80;99.90;;;;;;5091857;28;20016;-50
2022/06/02 02:25:29;;;;;;;8.15;4.95;;;13.70;99.90;;;;;;5090882;28;20032;-52
2022/06/02 02:28:11;;;;;;;12.02;4.25;;;13.60;99.90;;;;;;5090554;28;20114;-52
2022/06/02 02:30:46;;;;;;;13.90;5.60;;;13.60;99.90;;;;;;5091749;28;20371;-52
2022/06/02 02:33:35;;;;;;;10.10;5.07;;;13.50;99.90;;;;;;5091626;28;20021;-51
2022/06/02 02:36:25;;;;;;;11.75;5.85;;;13.50;99.90;;;;;;5091512;28;20027;-48
2022/06/02 02:39:03;;;;;;;6.45;5.13;;;13.50;99.90;;;;;;5091380;28;20071;-50
2022/06/02 02:41:52;;;;;;;6.28;4.68;;;13.50;99.90;;;;;;5091666;28;20028;-49
2022/06/02 02:44:37;;;;;;;10.63;5.05;;;13.40;99.90;;;;;;5091691;28;20101;-51
2022/06/02 02:47:17;;;;;;;8.63;5.35;;;13.30;99.90;;;;;;5091523;28;20020;-52
2022/06/02 02:49:55;;;;;;;10.70;5.55;;;13.30;99.90;;;;;;5091678;28;20020;-52
2022/06/02 02:52:36;;;;;;;12.55;6.32;;;13.20;99.90;;;;;;5091537;28;20639;-53
2022/06/02 02:55:24;;;;;;;15.52;6.15;;;13.30;99.90;;;;;;5091433;28;20028;-50
2022/06/02 02:58:14;;;;;;;6.22;5.65;;;13.20;99.90;;;;;;5091350;28;20024;-51
2022/06/02 03:01:01;;;;;;;15.82;6.60;;;13.20;99.90;;;;;;5092998;28;20026;-50
2022/06/02 03:03:41;;;;;;;8.52;5.50;;;13.30;99.90;;;;;;5094916;28;20024;-56
2022/06/02 03:06:45;;;;;;;10.75;5.53;;;13.30;99.90;;;;;;5094903;28;20057;-50
2022/06/02 03:09:38;;;;;;;9.25;6.30;;;13.30;99.90;;;;;;5082013;28;20063;-49
2022/06/02 03:12:26;;;;;;;14.13;5.97;;;13.20;99.90;;;;;;5094671;28;20032;-48
2022/06/02 03:15:13;;;;;;;12.30;6.10;;;13.20;99.90;;;;;;5093825;28;20028;-49
2022/06/02 03:17:57;;;;;;;7.82;5.90;;;13.30;99.90;;;;;;5094057;28;20035;-55
2022/06/02 03:20:32;;;;;;;11.88;6.32;;;13.30;99.90;;;;;;5094143;28;20082;-51
2022/06/02 03:23:31;;;;;;;5.45;4.95;;;13.30;99.90;;;;;;5093974;28;20028;-56
2022/06/02 03:26:24;;;;;;;8.15;5.90;;;13.40;99.90;;;;;;5094648;28;20032;-49
2022/06/02 03:29:05;;;;;;;10.38;6.00;;;13.40;99.90;;;;;;5093976;28;20618;-50
2022/06/02 03:32:03;;;;;;;12.95;6.15;;;13.50;99.90;;;;;;5094134;28;20027;-57
2022/06/02 03:34:54;;;;;;;7.80;5.85;;;13.60;99.90;;;;;;5070349;28;20409;-52
2022/06/02 03:37:43;;;;;;;7.35;6.63;;;13.70;99.90;;;;;;5094115;28;20074;-50
2022/06/02 03:40:33;;;;;;;9.35;7.30;;;13.80;99.90;;;;;;5094493;28;20028;-51
2022/06/02 03:43:13;;;;;;;9.63;6.07;;;13.90;99.90;;;;;;5094742;28;20026;-54
2022/06/02 03:45:54;;;;;;;13.13;5.40;;;14.00;99.90;;;;;;5094849;28;20023;-56
2022/06/02 03:48:38;;;;;;;8.60;5.75;;;14.00;99.90;;;;;;5094654;28;20024;-51
2022/06/02 03:51:18;;;;;;;;;;;13.90;99.90;;;;;;5095086;28;20034;-56
2022/06/02 03:53:53;;;;;;;13.52;5.30;;;14.00;99.90;;;;;;5094658;28;19994;-50
2022/06/02 03:56:43;;;;;;;6.03;5.28;;;14.00;99.90;;;;;;5094481;28;20043;-55
2022/06/02 03:59:21;;;;;;;6.57;5.40;;;14.00;99.90;;;;;;5094155;28;20427;-57
2022/06/02 04:01:58;;;;;;;9.77;5.55;;;14.00;99.90;;;;;;5094257;28;20455;-56
2022/06/02 04:05:08;;;;;;;5.75;5.10;;;14.10;99.90;;;;;;5094307;28;20052;-52
2022/06/02 04:08:12;;;;;;;11.05;5.97;;;14.10;99.90;;;;;;5094392;28;20035;-55
2022/06/02 04:11:14;;;;;;;9.43;5.63;;;14.20;99.90;;;;;;5091604;28;20036;-54
2022/06/02 04:13:45;;;;;;;9.15;6.07;;;14.20;99.90;;;;;;5094133;28;20028;-56
2022/06/02 04:16:30;;;;;;;13.65;5.95;;;14.20;99.90;;;;;;5093960;28;20024;-52
2022/06/02 04:19:01;;;;;;;9.60;5.60;;;14.30;99.90;;;;;;5093137;28;20020;-56
2022/06/02 04:21:56;;;;;;;9.38;5.20;;;14.40;99.90;;;;;;5093366;28;20075;-56
2022/06/02 04:24:31;;;;;;;6.78;6.03;;;14.50;99.90;;;;;;5093850;28;20060;-54
2022/06/02 04:27:30;;;;;;;6.45;5.07;;;14.50;99.90;;;;;;5092543;28;20020;-56
2022/06/02 04:30:29;;;;;;;8.20;6.22;;;14.60;99.90;;;;;;5105353;28;20040;-52
2022/06/02 04:33:33;;;;;;;8.48;6.03;;;14.70;99.90;;;;;;5093862;28;20024;-54
2022/06/02 04:36:07;;;;;;;10.23;6.38;;;14.60;99.90;;;;;;5093679;28;20035;-56
2022/06/02 04:38:51;;;;;;;7.13;6.03;;;14.70;99.90;;;;;;5093236;28;20044;-56
2022/06/02 04:41:53;;;;;;;6.88;6.22;;;14.70;99.90;;;;;;5093602;28;20665;-53
2022/06/02 04:44:52;;;;;;;8.63;4.70;;;14.80;99.90;;;;;;5092346;28;20027;-55
2022/06/02 04:47:45;;;;;;;7.20;5.07;;;14.90;99.90;;;;;;5093590;28;21134;-56
2022/06/02 04:50:26;;;;;;;8.90;5.50;;;15.00;99.90;;;;;;5093434;28;20032;-52
2022/06/02 04:53:04;;;;;;;6.57;4.60;;;15.10;99.90;;;;;;5092077;28;20589;-55
2022/06/02 04:55:38;;;;;;;7.35;4.97;;;15.10;99.90;;;;;;5093324;28;20086;-53
2022/06/02 04:58:37;;;;;;;11.18;5.65;;;15.40;99.90;;;;;;5093104;28;20039;-55
2022/06/02 05:01:40;;;;;;;5.80;5.22;;;15.30;99.90;;;;;;5073062;28;20064;-56
2022/06/02 05:04:24;;;;;;;5.78;5.07;;;15.40;99.90;;;;;;5093014;28;20042;-51
2022/06/02 05:10:10;;;;;;;11.68;4.97;;;15.70;99.90;;;;;;5093020;28;20085;-54
2022/06/02 05:12:47;;;;;;;6.60;5.18;;;15.70;99.90;;;;;;5092922;28;20020;-54
2022/06/02 05:15:21;;;;;;;5.18;4.43;;;15.70;99.90;;;;;;5092883;28;20464;-54
2022/06/02 05:18:06;;;;;;;8.00;4.90;;;15.70;99.90;;;;;;5092881;28;20099;-54
2022/06/02 05:21:03;;;;;;;7.32;5.13;;;15.80;99.90;;;;;;5092925;28;20016;-53
2022/06/02 05:23:46;;;;;;;5.22;4.72;;;15.90;99.90;;;;;;5091942;28;20024;-55
2022/06/02 05:26:31;;;;;;;8.82;4.93;;;15.90;99.90;;;;;;5092836;28;20506;-55
2022/06/02 05:29:17;;;;;;;11.07;4.95;;;15.90;99.90;;;;;;5091340;28;20119;-57
2022/06/02 05:31:52;;;;;;;6.15;5.43;;;16.00;99.90;;;;;;5092725;28;20028;-54
2022/06/02 05:34:30;;;;;;;10.80;4.65;;;16.00;99.90;;;;;;5092517;28;20097;-55
2022/06/02 05:37:04;;;;;;;4.90;4.43;;;16.10;99.90;;;;;;5092356;28;20028;-53
2022/06/02 05:39:36;;;;;;;10.38;5.07;;;16.30;99.90;;;;;;5092236;28;20048;-55
2022/06/02 05:42:29;;;;;;;5.72;4.63;;;16.20;99.90;;;;;;5092337;28;20035;-54
2022/06/02 05:45:34;;;;;;;4.78;4.30;;;16.20;99.90;;;;;;5090963;28;20016;-55
2022/06/02 05:48:21;;;;;;;4.63;4.03;;;16.30;99.90;;;;;;5092349;28;20021;-55
2022/06/02 05:51:04;;;;;;;8.35;5.22;;;16.30;99.90;;;;;;5092227;28;20020;-57
2022/06/02 05:53:57;;;;;;;6.28;4.45;;;16.40;99.90;;;;;;5090939;28;20031;-52
2022/06/02 05:56:31;;;;;;;5.10;4.70;;;16.50;99.90;;;;;;5092306;28;20020;-56
2022/06/02 05:58:56;;;;;;;7.40;4.40;;;16.50;99.90;;;;;;5092167;28;20382;-52
2022/06/02 06:01:37;;;;;;;4.85;4.28;;;16.70;99.90;;;;;;5092133;28;20503;-55
2022/06/02 06:04:20;;;;;;;4.80;4.28;;;16.80;99.90;;;;;;5092144;28;20113;-51
2022/06/02 06:06:54;;;;;;;10.55;4.90;;;16.80;99.90;;;;;;5092138;28;20532;-52
2022/06/02 06:09:52;;;;;;;6.43;4.78;;;16.80;99.90;;;;;;5091772;28;20039;-54
2022/06/02 06:12:39;;;;;;;5.38;4.32;;;16.90;99.90;;;;;;5056135;28;20502;-55
2022/06/02 06:15:14;;;;;;;10.63;4.35;;;16.70;99.90;;;;;;5091380;28;20032;-53
2022/06/02 06:17:54;;;;;;;8.95;4.07;;;16.90;99.90;;;;;;5091914;28;20032;-52
2022/06/02 06:20:42;;;;;;;6.25;3.72;;;16.80;99.90;;;;;;5091747;28;20024;-55
2022/06/02 06:23:46;;;;;;;5.63;3.40;;;17.00;99.90;;;;;;5090406;28;20024;-52
2022/06/02 06:26:27;;;;;;;6.28;4.03;;;16.90;99.90;;;;;;5090696;28;20042;-54
2022/06/02 06:28:57;;;;;;;6.10;3.40;;;16.90;99.90;;;;;;5091849;28;20024;-56
2022/06/02 06:31:54;;;;;;;4.25;2.97;;;16.90;99.90;;;;;;5091833;28;20024;-54
2022/06/02 06:34:40;;;;;;;4.80;3.22;;;17.00;99.90;;;;;;5091482;28;20020;-57
2022/06/02 06:37:42;;;;;;;3.13;2.78;;;17.10;99.90;;;;;;5091604;28;20031;-51
2022/06/02 06:41:03;;;;;;;11.68;3.40;;;17.20;99.90;;;;;;5091676;28;20461;-53
2022/06/02 06:43:53;;;;;;;3.45;3.15;;;17.40;99.90;;;;;;5048493;28;20021;-57
2022/06/02 06:46:33;;;;;;;5.10;2.90;;;17.80;99.90;;;;;;5089935;28;20503;-51
2022/06/02 06:49:09;;;;;;;4.60;3.45;;;17.90;99.90;;;;;;5091428;28;20120;-52
2022/06/02 06:51:53;;;;;;;3.83;2.88;;;17.90;99.90;;;;;;5091467;28;20028;-53
2022/06/02 06:55:00;;;;;;;7.97;3.03;;;17.70;99.90;;;;;;5091430;28;20035;-53
2022/06/02 06:57:45;;;;;;;8.80;3.53;;;17.50;99.90;;;;;;5091455;28;20375;-53
2022/06/02 07:00:21;;;;;;;4.80;3.40;;;17.50;99.90;;;;;;5089935;28;20035;-57
2022/06/02 07:03:07;;;;;;;5.18;3.67;;;17.40;99.90;;;;;;5091492;28;20027;-54
2022/06/02 07:05:46;;;;;;;4.95;3.35;;;17.30;99.90;;;;;;5089928;28;20451;-55
2022/06/02 07:08:17;;;;;;;3.45;3.13;;;17.80;99.90;;;;;;5091123;28;20024;-58
2022/06/02 07:14:24;;;;;;;3.47;2.92;;;18.60;99.90;;;;;;5076659;28;20077;-56
2022/06/02 07:16:57;;;;;;;5.40;3.25;;;18.90;99.90;;;;;;5091216;28;20028;-51
2022/06/02 07:19:39;;;;;;;5.32;2.90;;;19.00;99.90;;;;;;5091085;28;20645;-52
2022/06/02 07:22:29;;;;;;;5.50;2.72;;;19.10;99.90;;;;;;5091302;28;20031;-52
2022/06/02 07:25:14;;;;;;;5.70;2.47;;;19.20;99.90;;;;;;5091271;28;20073;-57
2022/06/02 07:27:40;;;;;;;6.97;2.88;;;19.40;99.90;;;;;;5091370;28;20020;-54
2022/06/02 07:30:39;;;;;;;6.93;2.88;;;19.40;99.90;;;;;;5091058;28;20020;-54
2022/06/02 07:33:13;;;;;;;3.20;2.90;;;19.60;99.90;;;;;;5091051;28;20024;-54
2022/06/02 07:35:57;;;;;;;5.35;2.58;;;19.60;99.90;;;;;;5091137;28;20417;-53
2022/06/02 07:38:38;;;;;;;3.03;2.72;;;19.40;99.90;;;;;;5090858;28;20044;-53
2022/06/02 07:41:19;;;;;;;4.50;3.47;;;19.10;99.90;;;;;;5091012;28;20088;-53
2022/06/02 07:44:03;;;;;;;15.13;3.22;;;19.10;99.90;;;;;;5091059;28;20035;-51
2022/06/02 07:46:53;;;;;;;3.63;3.33;;;19.00;99.90;;;;;;5092469;28;20069;-56
2022/06/02 07:49:23;;;;;;;5.75;2.72;;;19.10;99.90;;;;;;5094791;28;20032;-55
2022/06/02 07:52:30;;;;;;;3.17;2.60;;;19.30;99.90;;;;;;5093417;28;20655;-51
2022/06/02 07:55:05;;;;;;;2.92;2.72;;;19.10;99.90;;;;;;5073807;28;20054;-52
2022/06/02 07:57:56;;;;;;;4.35;3.00;;;19.20;99.90;;;;;;5094501;28;20027;-55
2022/06/02 08:00:27;;;;;;;3.30;2.92;;;19.20;99.90;;;;;;5094226;28;20081;-52
2022/06/02 08:03:13;;;;;;;6.40;3.38;;;19.30;99.90;;;;;;5093966;28;20031;-53
2022/06/02 08:05:55;;;;;;;10.05;3.33;;;19.10;99.90;;;;;;5093128;28;20043;-52
2022/06/02 08:08:29;;;;;;;5.53;4.10;;;19.10;99.90;;;;;;5093866;28;20052;-55
2022/06/02 08:11:19;;;;;;;3.42;2.95;;;19.00;99.90;;;;;;5094155;28;20028;-57
2022/06/02 08:13:52;;;;;;;3.33;3.03;;;19.20;99.90;;;;;;5094328;28;20127;-52
2022/06/02 08:16:50;;;;;;;31.92;4.85;;;19.30;99.90;;;;;;5094161;28;20028;-53
2022/06/02 08:19:29;;;;;;;3.75;2.70;;;19.60;99.90;;;;;;5093891;28;20081;-50
2022/06/02 08:21:58;;;;;;;8.15;3.08;;;19.60;99.90;;;;;;5093983;28;20119;-55
2022/06/02 08:24:42;;;;;;;6.07;3.03;;;19.50;99.90;;;;;;5094136;28;20031;-55
2022/06/02 08:27:22;;;;;;;5.85;2.63;;;19.40;99.90;;;;;;5093928;28;20031;-54
2022/06/02 08:30:09;;;;;;;5.70;2.78;;;19.80;99.90;;;;;;5093752;28;20077;-54
2022/06/02 08:32:43;;;;;;;604.67;367.52;;;19.90;99.90;;;;;;5093700;28;20024;-51
2022/06/02 08:35:31;;;;;;;31.00;18.33;;;19.80;99.90;;;;;;5093776;28;20063;-56
2022/06/02 08:38:28;;;;;;;8.02;7.32;;;19.80;99.90;;;;;;5092134;28;20051;-55
2022/06/02 08:41:38;;;;;;;5.22;4.05;;;20.00;99.90;;;;;;5093690;28;20028;-51
2022/06/02 08:44:25;;;;;;;3.35;2.45;;;20.40;99.90;;;;;;5076939;28;20040;-56
2022/06/02 08:47:28;;;;;;;7.90;3.05;;;20.90;99.90;;;;;;5093393;28;20052;-52
2022/06/02 08:50:15;;;;;;;2.50;2.30;;;20.80;99.90;;;;;;5093550;28;20028;-54
2022/06/02 08:53:07;;;;;;;6.13;2.83;;;21.10;99.60;;;;;;5093448;28;20028;-55
2022/06/02 08:56:05;;;;;;;5.25;3.00;;;21.40;99.20;;;;;;5093417;28;20030;-53
2022/06/02 08:58:30;;;;;;;2.92;2.15;;;21.40;99.10;;;;;;5093255;28;20016;-57
2022/06/02 09:01:11;;;;;;;3.70;1.98;;;21.70;99.50;;;;;;5093190;28;20074;-56
2022/06/02 09:04:04;;;;;;;2.33;1.67;;;22.30;97.70;;;;;;5091753;28;20447;-51
2022/06/02 09:06:53;;;;;;;2.80;2.00;;;22.60;96.60;;;;;;5093258;28;20565;-55
2022/06/02 09:09:53;;;;;;;3.65;2.50;;;22.50;96.40;;;;;;5073348;28;20463;-53
2022/06/02 09:12:27;;;;;;;3.17;1.67;;;22.10;95.50;;;;;;5093102;28;20024;-54
2022/06/02 09:15:21;;;;;;;3.78;1.88;;;21.40;96.50;;;;;;5092933;28;20372;-56
2022/06/02 09:18:02;;;;;;;3.72;2.00;;;21.60;98.80;;;;;;5093111;28;20028;-52
2022/06/02 09:20:44;;;;;;;4.93;2.53;;;21.70;97.90;;;;;;5092888;28;20364;-54
2022/06/02 09:23:16;;;;;;;9.48;2.20;;;21.70;97.80;;;;;;5092603;28;20082;-58
2022/06/02 09:26:19;;;;;;;4.15;2.47;;;21.90;97.40;;;;;;5092687;28;20052;-56
2022/06/02 09:28:49;;;;;;;3.80;2.03;;;21.60;96.40;;;;;;5092721;28;20042;-55
2022/06/02 09:31:41;;;;;;;4.82;2.40;;;21.80;96.00;;;;;;5092568;28;20036;-54
2022/06/02 09:34:13;;;;;;;3.10;2.53;;;21.80;95.30;;;;;;5092585;28;20483;-55
2022/06/02 09:37:01;;;;;;;2.58;1.92;;;22.40;96.00;;;;;;5092449;28;20119;-55
2022/06/02 09:39:29;;;;;;;2.70;1.70;;;23.00;96.20;;;;;;5092270;28;20048;-55
2022/06/02 09:42:12;;;;;;;4.00;2.13;;;23.30;94.80;;;;;;5092351;28;20148;-55
2022/06/02 09:45:04;;;;;;;2.22;2.03;;;23.60;94.00;;;;;;5092338;28;20016;-51
2022/06/02 09:47:30;;;;;;;5.10;2.20;;;23.80;91.90;;;;;;5092444;28;20024;-56
2022/06/02 09:50:14;;;;;;;2.42;2.22;;;23.20;92.50;;;;;;5092354;28;20111;-55
2022/06/02 09:52:58;;;;;;;3.35;1.98;;;22.50;93.60;;;;;;5092364;28;20017;-53
2022/06/02 09:56:01;;;;;;;8.50;2.35;;;23.10;93.70;;;;;;5092221;28;20032;-55
2022/06/02 09:58:30;;;;;;;2.47;2.15;;;23.30;91.90;;;;;;5091602;28;20467;-55
2022/06/02 10:01:05;;;;;;;3.40;1.90;;;23.20;93.50;;;;;;5091417;28;20031;-55
2022/06/02 10:03:58;;;;;;;8.57;2.00;;;23.30;93.40;;;;;;5092178;28;20126;-57
2022/06/02 10:06:51;;;;;;;4.20;2.35;;;23.20;92.50;;;;;;5092085;28;20044;-56
2022/06/02 10:09:41;;;;;;;6.30;1.80;;;23.20;92.30;;;;;;5091643;28;20024;-55
2022/06/02 10:15:26;;;;;;;2.92;2.17;;;24.00;93.00;;;;;;5091870;28;20109;-58
2022/06/02 10:17:58;;;;;;;5.97;1.85;;;24.30;90.70;;;;;;5063284;28;20119;-54
2022/06/02 10:20:42;;;;;;;1.90;1.80;;;24.60;91.00;;;;;;5091764;28;20073;-58
2022/06/02 10:23:32;;;;;;;3.20;1.88;;;24.50;89.40;;;;;;5091793;28;20028;-52
2022/06/02 10:26:01;;;;;;;2.35;1.63;;;24.40;84.40;;;;;;5091784;28;20399;-55
2022/06/02 10:29:05;;;;;;;7.53;2.10;;;25.10;85.10;;;;;;5091643;28;20451;-54
2022/06/02 10:31:46;;;;;;;2.40;1.67;;;25.70;77.80;;;;;;5091866;28;20024;-52
2022/06/02 10:34:30;;;;;;;1.63;1.20;;;26.40;76.80;;;;;;5091558;28;20072;-55
2022/06/02 10:37:02;;;;;;;5.47;1.70;;;25.60;75.40;;;;;;5091559;28;20016;-52
2022/06/02 10:39:45;;;;;;;3.08;2.20;;;24.80;78.80;;;;;;5091320;28;20052;-55
2022/06/02 10:42:53;;;;;;;5.03;3.28;;;24.40;76.50;;;;;;5091344;28;20028;-51
2022/06/02 10:45:26;;;;;;;5.70;1.70;;;24.20;81.00;;;;;;5091596;28;20020;-54
2022/06/02 10:48:07;;;;;;;2.65;1.50;;;24.30;79.50;;;;;;5091653;28;20099;-55
2022/06/02 10:51:00;;;;;;;2.63;2.00;;;23.90;75.70;;;;;;5091518;28;20032;-55
2022/06/02 10:53:29;;;;;;;2.67;1.90;;;24.10;79.30;;;;;;5091519;28;20031;-55
2022/06/02 10:56:15;;;;;;;1.85;1.63;;;24.30;84.50;;;;;;5091363;28;20028;-53
2022/06/02 10:59:16;;;;;;;4.50;3.05;;;24.50;85.50;;;;;;5091466;28;20024;-55
2022/06/02 11:01:59;;;;;;;6.45;3.33;;;24.10;84.40;;;;;;5091402;28;20020;-54
2022/06/02 11:04:28;;;;;;;;;;;24.30;88.40;;;;;;5091906;28;20025;-53
2022/06/02 11:07:05;;;;;;;2.85;1.70;;;24.50;85.80;;;;;;5090114;28;19915;-52
2022/06/02 11:09:46;;;;;;;2.72;2.03;;;24.70;87.40;;;;;;5091378;28;20028;-55
2022/06/02 11:12:34;;;;;;;4.47;1.92;;;25.10;85.10;;;;;;5091076;28;20028;-54
2022/06/02 11:15:23;;;;;;;6.40;2.10;;;25.80;83.20;;;;;;5060767;28;20364;-56
2022/06/02 11:18:18;;;;;;;2.97;2.03;;;25.60;86.30;;;;;;5091276;28;20032;-49
2022/06/02 11:21:22;;;;;;;2.58;1.63;;;25.70;83.00;;;;;;5091697;28;20039;-53
2022/06/02 11:24:17;;;;;;;2.67;1.55;;;25.50;82.30;;;;;;5095249;28;20024;-56
2022/06/02 11:27:08;;;;;;;3.90;2.00;;;26.10;83.20;;;;;;5094953;28;20024;-56
2022/06/02 11:30:02;;;;;;;3.58;1.92;;;26.00;83.30;;;;;;5095070;28;20386;-49
2022/06/02 11:32:52;;;;;;;2.83;1.50;;;26.10;77.70;;;;;;5095078;28;20028;-54
2022/06/02 11:35:27;;;;;;;3.15;1.70;;;25.80;75.40;;;;;;5094903;28;20531;-52
2022/06/02 11:38:10;;;;;;;4.20;1.70;;;26.60;79.60;;;;;;5094617;28;20028;-56
2022/06/02 11:40:54;;;;;;;2.00;1.58;;;26.60;71.90;;;;;;5094170;28;20028;-54
2022/06/02 11:43:29;;;;;;;;;;;26.60;72.70;;;;;;5093961;28;20024;-53
2022/06/02 11:46:00;;;;;;;4.65;2.20;;;26.60;73.60;;;;;;5093515;28;19904;-53
2022/06/02 11:49:04;;;;;;;1.73;1.60;;;27.20;79.10;;;;;;5093483;28;20051;-51
2022/06/02 11:51:36;;;;;;;;;;;26.60;76.20;;;;;;5094877;28;20048;-51
2022/06/02 11:54:19;;;;;;;3.03;1.83;;;26.90;77.20;;;;;;5093651;28;19954;-50
2022/06/02 11:56:54;;;;;;;;;;;27.40;78.20;;;;;;5094060;28;20024;-52
2022/06/02 11:59:22;;;;;;;3.15;1.45;;;27.50;74.00;;;;;;5093444;28;19914;-52
2022/06/02 12:02:15;;;;;;;7.47;1.33;;;27.80;74.20;;;;;;5094009;28;20073;-53
2022/06/02 12:05:00;;;;;;;2.65;1.95;;;27.80;69.80;;;;;;5094522;28;20016;-55
2022/06/02 12:07:43;;;;;;;4.13;2.00;;;27.20;70.90;;;;;;5094076;28;20065;-54
2022/06/02 12:10:27;;;;;;;;;;;27.30;71.90;;;;;;5094544;28;20028;-54
2022/06/02 12:13:04;;;;;;;1.92;1.65;;;26.80;71.80;;;;;;5094353;28;19900;-53
2022/06/02 12:15:48;;;;;;;3.35;1.88;;;26.00;72.50;;;;;;5094217;28;20503;-55
2022/06/02 12:18:19;;;;;;;;;;;25.90;77.30;;;;;;5094500;28;20115;-53
2022/06/02 12:21:22;;;;;;;4.90;1.60;;;26.70;78.30;;;;;;5094086;28;20252;-55
2022/06/02 12:24:09;;;;;;;1.75;1.20;;;26.90;69.30;;;;;;5093903;28;20369;-55
2022/06/02 12:26:53;;;;;;;3.90;1.70;;;28.80;69.40;;;;;;5094010;28;20039;-56
2022/06/02 12:29:35;;;;;;;4.07;1.20;;;29.80;65.70;;;;;;5093947;28;20025;-56
2022/06/02 12:32:29;;;;;;;2.97;1.35;;;30.50;66.60;;;;;;5093605;28;20023;-55
2022/06/02 12:35:16;;;;;;;5.80;1.30;;;31.10;63.90;;;;;;5093739;28;20032;-56
2022/06/02 12:38:15;;;;;;;1.85;1.25;;;31.40;63.30;;;;;;5092289;28;20024;-56
2022/06/02 12:41:03;;;;;;;2.75;1.77;;;31.40;62.80;;;;;;5053536;28;20119;-56
2022/06/02 12:43:56;;;;;;;3.67;1.33;;;31.80;58.80;;;;;;5053467;28;20059;-57
2022/06/02 12:46:35;;;;;;;2.95;1.13;;;31.30;59.10;;;;;;5053323;28;20029;-57
2022/06/02 12:49:19;;;;;;;4.18;1.23;;;31.40;61.30;;;;;;5053303;28;20119;-56
2022/06/02 12:51:50;;;;;;;4.90;1.58;;;31.90;58.50;;;;;;5053198;28;20103;-57
2022/06/02 12:54:38;;;;;;;5.40;1.63;;;31.80;57.50;;;;;;5053125;28;20436;-57
2022/06/02 12:57:21;;;;;;;2.47;1.33;;;32.40;57.10;;;;;;5053221;28;20448;-57
2022/06/02 13:00:17;;;;;;;2.00;1.48;;;32.80;57.00;;;;;;5052840;28;20048;-57
2022/06/02 13:03:13;;;;;;;1.85;1.52;;;32.20;54.10;;;;;;5052963;28;20029;-57
2022/06/02 13:05:48;;;;;;;4.53;1.20;;;32.20;53.80;;;;;;5052967;28;20445;-57
2022/06/02 13:08:34;;;;;;;7.15;1.35;;;31.30;53.40;;;;;;5053069;28;20029;-56
2022/06/02 13:11:21;;;;;;;2.47;1.33;;;30.80;57.00;;;;;;5052867;28;20021;-56
2022/06/02 13:14:11;;;;;;;3.08;1.10;;;31.20;56.70;;;;;;5053017;28;20346;-56
2022/06/02 13:17:04;;;;;;;1.67;1.38;;;31.30;55.60;;;;;;5052871;28;20025;-56
2022/06/02 13:19:58;;;;;;;6.85;1.20;;;31.90;54.60;;;;;;5052735;28;20032;-57
2022/06/02 13:22:48;;;;;;;3.75;1.33;;;32.40;49.80;;;;;;5052552;28;20028;-57
2022/06/02 13:25:36;;;;;;;1.63;1.20;;;32.80;52.10;;;;;;5052596;28;20029;-57
2022/06/02 13:28:14;;;;;;;1.75;1.20;;;32.60;50.40;;;;;;5052497;28;20017;-57
2022/06/02 13:30:57;;;;;;;3.58;1.20;;;33.10;51.70;;;;;;5052538;28;20025;-57
2022/06/02 13:33:44;;;;;;;3.15;1.05;;;33.60;50.70;;;;;;5052537;28;20048;-57
2022/06/02 13:36:18;;;;;;;5.55;1.20;;;33.60;50.20;;;;;;5052413;28;20357;-57
2022/06/02 13:38:55;;;;;;;5.28;1.10;;;33.80;50.80;;;;;;5066606;28;20659;-57
2022/06/02 13:41:59;;;;;;;4.88;1.20;;;33.40;49.50;;;;;;5092562;28;20487;-57
2022/06/02 13:45:03;;;;;;;3.28;1.23;;;34.20;48.50;;;;;;5086356;28;20531;-57
2022/06/02 13:48:06;;;;;;;3.53;1.88;;;34.20;49.50;;;;;;5091684;28;20475;-55
2022/06/02 13:51:08;;;;;;;4.90;1.60;;;32.60;50.90;;;;;;5092323;28;20021;-57
2022/06/02 14:00:08;;;;;;;2.40;1.50;;;29.00;58.10;;;;;;5092166;28;20076;-55
2022/06/02 14:02:52;;;;;;;2.00;1.67;;;28.20;57.20;;;;;;5092044;28;20031;-55
2022/06/02 14:05:20;;;;;;;5.63;1.42;;;27.20;59.80;;;;;;5091912;28;20024;-56
2022/06/02 14:08:10;;;;;;;2.40;1.40;;;26.70;57.80;;;;;;5092143;28;20024;-55
2022/06/02 14:10:48;;;;;;;7.68;1.88;;;26.30;58.90;;;;;;5092044;28;20508;-53
2022/06/02 14:13:23;;;;;;;5.45;1.60;;;25.70;60.00;;;;;;5091947;28;20020;-53
2022/06/02 14:15:59;;;;;;;3.67;1.80;;;25.50;63.20;;;;;;5091913;28;20028;-55
2022/06/02 14:18:56;;;;;;;5.93;1.75;;;25.40;65.80;;;;;;5091884;28;20031;-55
2022/06/02 14:21:24;;;;;;;5.53;1.95;;;25.80;65.00;;;;;;5091857;28;20024;-55
2022/06/02 14:24:01;;;;;;;2.10;1.90;;;26.50;63.10;;;;;;5091523;28;20016;-55
2022/06/02 14:26:34;;;;;;;1.77;1.15;;;27.60;60.00;;;;;;5091711;28;20030;-57
2022/06/02 14:29:17;;;;;;;6.65;1.80;;;27.90;60.20;;;;;;5091727;28;20069;-55
2022/06/02 14:31:43;;;;;;;1.67;1.45;;;28.20;59.30;;;;;;5091669;28;20087;-57
2022/06/02 14:34:33;;;;;;;2.22;1.25;;;28.70;60.70;;;;;;5091470;28;20082;-57
2022/06/02 14:37:19;;;;;;;11.63;2.20;;;29.00;57.40;;;;;;5090195;28;20532;-57